Hier das METAR für die 16 wichtigsten Deutschen Flughäfen.
(dauert ein wenig.... ich muss laden.....)

ODER
METAR nach ICAO Code suchen


Warning: file_get_contents(http://tgftp.nws.noaa.gov/data/observations/metar/stations/EDDF.TXT): failed to open stream: HTTP request failed! HTTP/1.1 404 Not Found in /homepages/31/d211820148/htdocs/eddk.info/wp-content/themes/atahualpa/@METAR_EXTERN.php on line 100

Warning: file_get_contents(http://tgftp.nws.noaa.gov/data/observations/metar/stations/EDDG.TXT): failed to open stream: HTTP request failed! HTTP/1.1 404 Not Found in /homepages/31/d211820148/htdocs/eddk.info/wp-content/themes/atahualpa/@METAR_EXTERN.php on line 104
Berlin - Schönefeld

EDDB

METAR
EDDB 270920Z 07006KT 360V170 CAVOK 25/12 Q1021 NOSIG
EDDBMETAR lang
Berlin-Schoenefeld, Germany (EDDB) 52-23N 013-31E 50M
May 27, 2018 - 05:20 AM EDT / 2018.05.27 0920 UTC
Wind: from the ENE (070 degrees) at 7 MPH (6 KT) (direction variable):0
Visibility: greater than 7 mile(s):0
Temperature: 77 F (25 C)
Dew Point: 53 F (12 C)
Relative Humidity: 44%
Pressure (altimeter): 30.15 in. Hg (1021 hPa)
ob: EDDB 270920Z 07006KT 360V170 CAVOK 25/12 Q1021 NOSIG
cycle: 9

Dresden

EDDC

METAR
EDDC 270920Z 07003KT 360V110 9999 FEW040 BKN100 17/14 Q1021 NOSIG
EDDCMETAR lang
Dresden-Klotzsche, Germany (EDDC) 51-08N 013-45E 232M
May 27, 2018 - 05:20 AM EDT / 2018.05.27 0920 UTC
Wind: from the ENE (070 degrees) at 3 MPH (3 KT) (direction variable):0
Visibility: greater than 7 mile(s):0
Sky conditions: mostly cloudy
Temperature: 62 F (17 C)
Dew Point: 57 F (14 C)
Relative Humidity: 82%
Pressure (altimeter): 30.15 in. Hg (1021 hPa)
ob: EDDC 270920Z 07003KT 360V110 9999 FEW040 BKN100 17/14 Q1021 NOSIG
cycle: 9

Erfurt

EDDE

METAR
EDDE 270920Z 05007KT 010V090 9999 FEW060CB SCT066 BKN300 21/15 Q1021 NOSIG
EDDEMETAR lang
Erfurt-Bindersleben, Germany (EDDE) 50-59N 010-58E 322M
May 27, 2018 - 05:20 AM EDT / 2018.05.27 0920 UTC
Wind: from the NE (050 degrees) at 8 MPH (7 KT) (direction variable):0
Visibility: greater than 7 mile(s):0
Sky conditions: mostly cloudy
Weather: Cumulonimbus clouds observed
Temperature: 69 F (21 C)
Dew Point: 59 F (15 C)
Relative Humidity: 68%
Pressure (altimeter): 30.15 in. Hg (1021 hPa)
ob: EDDE 270920Z 05007KT 010V090 9999 FEW060CB SCT066 BKN300 21/15 Q1021 NOSIG
cycle: 9

Frankfurt a. Main

EDDF

METAR
EDDFMETAR lang
Frankfurt / M-Flughafen, Germany (EDDF) 50-03N 008-36E 113M
May 27, 2018 - 05:20 AM EDT / 2018.05.27 0920 UTC
Wind: Variable at 6 MPH (5 KT):0
Visibility: greater than 7 mile(s):0
Sky conditions: partly cloudy
Temperature: 78 F (26 C)
Dew Point: 59 F (15 C)
Relative Humidity: 50%
Pressure (altimeter): 30.06 in. Hg (1018 hPa)
ob: EDDF 270920Z VRB05KT 9999 FEW048 SCT150 26/15 Q1018 NOSIG
cycle: 9

Münster Osnabrück

EDDG

METAR
EDDGMETAR lang
Muenster / Osnabrueck, Germany (EDDG) 52-08N 007-42E 53M
May 27, 2018 - 05:20 AM EDT / 2018.05.27 0920 UTC
Wind: from the NE (050 degrees) at 9 MPH (8 KT) (direction variable):0
Visibility: greater than 7 mile(s):0
Temperature: 75 F (24 C)
Dew Point: 57 F (14 C)
Relative Humidity: 53%
Pressure (altimeter): 30.09 in. Hg (1019 hPa)
ob: EDDG 270920Z 05008KT 360V150 CAVOK 24/14 Q1019 NOSIG
cycle: 9

Hamburg

EDDH

METAR
EDDH 270920Z 08008KT 030V120 9999 SCT013 19/13 Q1023 NOSIG
EDDHMETAR lang
Hamburg-Fuhlsbuettel, Germany (EDDH) 53-38N 010-00E 15M
May 27, 2018 - 05:20 AM EDT / 2018.05.27 0920 UTC
Wind: from the E (080 degrees) at 9 MPH (8 KT) (direction variable):0
Visibility: greater than 7 mile(s):0
Sky conditions: partly cloudy
Temperature: 66 F (19 C)
Dew Point: 55 F (13 C)
Relative Humidity: 68%
Pressure (altimeter): 30.21 in. Hg (1023 hPa)
ob: EDDH 270920Z 08008KT 030V120 9999 SCT013 19/13 Q1023 NOSIG
cycle: 9

Köln - Bonn

EDDK

METAR
EDDK 270920Z 14005KT 100V190 CAVOK 27/14 Q1018 NOSIG
EDDKMETAR lang
Koeln / Bonn, Germany (EDDK) 50-52N 007-10E 100M
May 27, 2018 - 05:20 AM EDT / 2018.05.27 0920 UTC
Wind: from the SE (140 degrees) at 6 MPH (5 KT) (direction variable):0
Visibility: greater than 7 mile(s):0
Temperature: 80 F (27 C)
Dew Point: 57 F (14 C)
Relative Humidity: 44%
Pressure (altimeter): 30.06 in. Hg (1018 hPa)
ob: EDDK 270920Z 14005KT 100V190 CAVOK 27/14 Q1018 NOSIG
cycle: 9

Düsseldorf

EDDL

METAR
EDDL 270920Z 01005KT 310V060 9999 FEW040 SCT270 26/17 Q1018 NOSIG
EDDLMETAR lang
Duesseldorf, Germany (EDDL) 51-18N 006-46E 41M
May 27, 2018 - 05:20 AM EDT / 2018.05.27 0920 UTC
Wind: from the N (010 degrees) at 6 MPH (5 KT) (direction variable):0
Visibility: greater than 7 mile(s):0
Sky conditions: partly cloudy
Temperature: 78 F (26 C)
Dew Point: 62 F (17 C)
Relative Humidity: 57%
Pressure (altimeter): 30.06 in. Hg (1018 hPa)
ob: EDDL 270920Z 01005KT 310V060 9999 FEW040 SCT270 26/17 Q1018 NOSIG
cycle: 9

München

EDDM

METAR
EDDM 270920Z 08006KT 030V120 CAVOK 22/16 Q1020 NOSIG
EDDMMETAR lang
Munchen, Germany (EDDM) 48-21N 011-47E
May 27, 2018 - 05:20 AM EDT / 2018.05.27 0920 UTC
Wind: from the E (080 degrees) at 7 MPH (6 KT) (direction variable):0
Visibility: greater than 7 mile(s):0
Temperature: 71 F (22 C)
Dew Point: 60 F (16 C)
Relative Humidity: 68%
Pressure (altimeter): 30.12 in. Hg (1020 hPa)
ob: EDDM 270920Z 08006KT 030V120 CAVOK 22/16 Q1020 NOSIG
cycle: 9

Nürnberg

EDDN

METAR
EDDN 270920Z VRB03KT 9999 FEW035 BKN150 BKN300 24/16 Q1020 NOSIG
EDDNMETAR lang
Nuernberg, Germany (EDDN) 49-30N 011-03E 318M
May 27, 2018 - 05:20 AM EDT / 2018.05.27 0920 UTC
Wind: Variable at 3 MPH (3 KT):0
Visibility: greater than 7 mile(s):0
Sky conditions: mostly cloudy
Temperature: 75 F (24 C)
Dew Point: 60 F (16 C)
Relative Humidity: 60%
Pressure (altimeter): 30.12 in. Hg (1020 hPa)
ob: EDDN 270920Z VRB03KT 9999 FEW035 BKN150 BKN300 24/16 Q1020 NOSIG
cycle: 9

Leipzig - Halle

EDDP

METAR
EDDP 270920Z 09006KT 060V140 CAVOK 21/15 Q1021 NOSIG
EDDPMETAR lang
Leipzig-Schkeuditz, Germany (EDDP) 51-25N 012-14E 149M
May 27, 2018 - 05:20 AM EDT / 2018.05.27 0920 UTC
Wind: from the E (090 degrees) at 7 MPH (6 KT) (direction variable):0
Visibility: greater than 7 mile(s):0
Temperature: 69 F (21 C)
Dew Point: 59 F (15 C)
Relative Humidity: 68%
Pressure (altimeter): 30.15 in. Hg (1021 hPa)
ob: EDDP 270920Z 09006KT 060V140 CAVOK 21/15 Q1021 NOSIG
cycle: 9

Saarbrücken

EDDR

METAR
EDDR 270920Z VRB03KT 9999 FEW025 BKN110 BKN270 23/16 Q1019 NOSIG
EDDRMETAR lang
Saarbruecken / Ensheim, Germany (EDDR) 49-13N 007-07E 320M
May 27, 2018 - 05:20 AM EDT / 2018.05.27 0920 UTC
Wind: Variable at 3 MPH (3 KT):0
Visibility: greater than 7 mile(s):0
Sky conditions: mostly cloudy
Temperature: 73 F (23 C)
Dew Point: 60 F (16 C)
Relative Humidity: 64%
Pressure (altimeter): 30.09 in. Hg (1019 hPa)
ob: EDDR 270920Z VRB03KT 9999 FEW025 BKN110 BKN270 23/16 Q1019 NOSIG
cycle: 9

Stuttgart

EDDS

METAR
EDDS 270920Z VRB02KT 9999 FEW032 SCT120 BKN300 24/16 Q1020 NOSIG
EDDSMETAR lang
Stuttgart-Echterdingen, Germany (EDDS) 48-41N 009-13E 391M
May 27, 2018 - 05:20 AM EDT / 2018.05.27 0920 UTC
Wind: Variable at 2 MPH (2 KT):0
Visibility: greater than 7 mile(s):0
Sky conditions: mostly cloudy
Temperature: 75 F (24 C)
Dew Point: 60 F (16 C)
Relative Humidity: 60%
Pressure (altimeter): 30.12 in. Hg (1020 hPa)
ob: EDDS 270920Z VRB02KT 9999 FEW032 SCT120 BKN300 24/16 Q1020 NOSIG
cycle: 9

Berlin - Tegel

EDDT

METAR
EDDT 270920Z VRB04KT CAVOK 24/12 Q1021 NOSIG
EDDTMETAR lang
Berlin-Tegel, Germany (EDDT) 52-34N 013-19E 37M
May 27, 2018 - 05:20 AM EDT / 2018.05.27 0920 UTC
Wind: Variable at 5 MPH (4 KT):0
Visibility: greater than 7 mile(s):0
Temperature: 75 F (24 C)
Dew Point: 53 F (12 C)
Relative Humidity: 46%
Pressure (altimeter): 30.15 in. Hg (1021 hPa)
ob: EDDT 270920Z VRB04KT CAVOK 24/12 Q1021 NOSIG
cycle: 9

Hannover

EDDV

METAR
EDDV 270920Z 08010KT 060V120 CAVOK 23/13 Q1021 NOSIG
EDDVMETAR lang
Hannover, Germany (EDDV) 52-28N 009-41E 59M
May 27, 2018 - 05:20 AM EDT / 2018.05.27 0920 UTC
Wind: from the E (080 degrees) at 12 MPH (10 KT) (direction variable):0
Visibility: greater than 7 mile(s):0
Temperature: 73 F (23 C)
Dew Point: 55 F (13 C)
Relative Humidity: 53%
Pressure (altimeter): 30.15 in. Hg (1021 hPa)
ob: EDDV 270920Z 08010KT 060V120 CAVOK 23/13 Q1021 NOSIG
cycle: 9

Bremen

EDDW

METAR
EDDW 270920Z 07009KT 040V110 9999 FEW044 22/12 Q1021 NOSIG
EDDWMETAR lang
Bremen, Germany (EDDW) 53-03N 008-48E 5M
May 27, 2018 - 05:20 AM EDT / 2018.05.27 0920 UTC
Wind: from the ENE (070 degrees) at 10 MPH (9 KT) (direction variable):0
Visibility: greater than 7 mile(s):0
Sky conditions: mostly clear
Temperature: 71 F (22 C)
Dew Point: 53 F (12 C)
Relative Humidity: 53%
Pressure (altimeter): 30.15 in. Hg (1021 hPa)
ob: EDDW 270920Z 07009KT 040V110 9999 FEW044 22/12 Q1021 NOSIG
cycle: 9